createdAt,value
2018-12-20T05:49:59.723Z,4.67
2018-12-20T05:55:10.514Z,4.30
2018-12-20T06:00:21.648Z,4.50
2018-12-20T06:05:32.832Z,4.20
2018-12-20T06:10:43.610Z,4.72
2018-12-20T06:21:05.698Z,4.22
2018-12-20T06:26:18.425Z,3.92
2018-12-20T06:31:29.656Z,3.92
2018-12-20T06:36:41.019Z,4.00
2018-12-20T06:41:52.464Z,3.90
2018-12-20T06:47:02.984Z,4.20
2018-12-20T06:52:13.759Z,4.12
2018-12-20T06:57:24.672Z,3.60
2018-12-20T07:02:36.224Z,4.12
2018-12-20T07:07:48.670Z,4.15
2018-12-20T07:12:59.610Z,4.20
2018-12-20T07:18:11.367Z,4.30
2018-12-20T07:23:21.925Z,4.10
2018-12-20T07:33:44.617Z,4.20
2018-12-20T07:38:56.229Z,4.05
2018-12-20T07:44:06.837Z,3.87
2018-12-20T07:49:18.812Z,3.65
2018-12-20T07:54:29.899Z,3.85
2018-12-20T07:59:42.209Z,3.92
2018-12-20T08:10:03.596Z,3.90
2018-12-20T08:15:15.000Z,3.95
2018-12-20T08:20:25.913Z,4.10
2018-12-20T08:25:36.619Z,3.65
2018-12-20T08:30:48.670Z,3.40
2018-12-20T08:35:59.780Z,3.67
2018-12-20T08:41:10.815Z,3.52
2018-12-20T08:46:21.672Z,3.45
2018-12-20T08:51:49.055Z,3.80
2018-12-20T08:56:59.678Z,3.65
2018-12-20T09:02:11.398Z,3.65
2018-12-20T09:07:22.315Z,4.00
2018-12-20T09:12:36.620Z,3.83
2018-12-20T09:17:47.981Z,3.90
2018-12-20T09:23:11.397Z,4.10
2018-12-20T09:28:22.821Z,3.62
2018-12-20T09:33:40.377Z,3.40
2018-12-20T09:38:51.628Z,3.70
2018-12-20T09:47:30.321Z,3.83
2018-12-20T09:52:41.216Z,3.33
2018-12-20T09:57:52.735Z,3.27
2018-12-20T10:03:03.615Z,3.47
2018-12-20T10:08:15.729Z,3.52
2018-12-20T10:13:27.475Z,3.20
2018-12-20T10:18:43.820Z,3.33
2018-12-20T10:23:54.858Z,3.60
2018-12-20T10:29:05.754Z,3.45
2018-12-20T10:34:16.759Z,3.22
2018-12-20T10:39:27.743Z,3.33
2018-12-20T10:44:39.494Z,3.17
2018-12-20T10:49:58.867Z,3.25
2018-12-20T10:55:09.709Z,3.80
2018-12-20T11:00:20.624Z,3.10
2018-12-20T11:05:42.529Z,3.17
2018-12-20T11:11:09.777Z,3.30
2018-12-20T11:16:21.206Z,3.40
2018-12-20T11:21:32.481Z,3.20
2018-12-20T11:26:43.876Z,3.30
2018-12-20T11:31:55.251Z,3.50
2018-12-20T11:37:06.899Z,3.20
2018-12-20T11:42:23.788Z,3.15
2018-12-20T11:52:46.510Z,3.15
2018-12-20T11:57:58.227Z,3.05
2018-12-20T12:03:20.716Z,3.40
2018-12-20T12:08:31.671Z,3.27
2018-12-20T12:18:52.904Z,3.17
2018-12-20T12:24:03.669Z,3.25
2018-12-20T12:29:15.391Z,3.00
2018-12-20T12:34:26.667Z,2.65
2018-12-20T12:39:37.905Z,3.10
2018-12-20T12:45:15.792Z,3.33
2018-12-20T12:50:39.569Z,3.05
2018-12-20T12:55:51.881Z,2.80
2018-12-20T13:01:03.703Z,2.90
2018-12-20T13:06:14.605Z,2.60
2018-12-20T13:11:26.482Z,3.00
2018-12-20T13:16:37.786Z,2.80
2018-12-20T13:21:48.712Z,2.67
2018-12-20T13:26:59.864Z,2.65
2018-12-20T13:32:24.224Z,3.05
2018-12-20T13:37:36.509Z,2.87
2018-12-20T13:42:47.676Z,2.72
2018-12-20T13:48:01.361Z,2.47
2018-12-20T13:53:14.713Z,2.47
2018-12-20T13:58:25.698Z,2.55
2018-12-20T14:03:37.430Z,2.62
2018-12-20T14:08:49.774Z,2.60
2018-12-20T14:14:03.196Z,2.60
2018-12-20T14:19:14.709Z,2.35
2018-12-20T14:24:26.420Z,2.80
2018-12-20T14:29:37.913Z,2.70
2018-12-20T14:34:49.329Z,2.47
2018-12-20T14:40:04.697Z,2.30
2018-12-20T14:45:16.330Z,2.43
2018-12-20T14:50:35.229Z,2.40
2018-12-20T14:55:47.567Z,2.52
2018-12-20T15:01:04.524Z,2.37
2018-12-20T15:06:19.742Z,1.82
2018-12-20T15:25:09.554Z,1.65
2018-12-20T15:35:45.907Z,1.40
2018-12-20T15:41:06.799Z,1.50
2018-12-20T15:51:58.820Z,1.50
2018-12-20T15:57:09.844Z,1.70
2018-12-20T16:02:22.751Z,1.80
2018-12-20T16:07:34.569Z,1.72
2018-12-20T16:12:51.824Z,2.00
2018-12-20T16:23:14.599Z,1.92
2018-12-20T16:28:25.556Z,1.72
2018-12-20T16:33:38.902Z,2.00
2018-12-20T16:39:00.610Z,1.98
2018-12-20T16:44:12.226Z,1.90
2018-12-20T16:49:23.828Z,2.15
2018-12-20T16:54:34.439Z,1.90
2018-12-20T17:07:36.873Z,1.80
2018-12-20T17:12:52.211Z,1.50
2018-12-20T17:23:16.648Z,1.50
2018-12-20T17:28:27.658Z,1.85
2018-12-20T17:39:01.823Z,1.60
2018-12-20T17:44:26.306Z,1.60
2018-12-20T17:49:37.631Z,1.70
2018-12-20T17:54:48.633Z,1.72
2018-12-20T18:00:06.781Z,1.50
2018-12-20T18:05:18.305Z,2.30
2018-12-20T18:10:42.719Z,1.90
2018-12-20T18:21:24.422Z,2.00
2018-12-20T18:26:35.797Z,1.75
2018-12-20T18:32:12.513Z,1.72
2018-12-20T18:37:23.637Z,2.30
2018-12-20T18:47:50.615Z,1.92
2018-12-20T18:53:01.390Z,1.75
2018-12-20T18:58:19.500Z,1.80
2018-12-20T19:06:41.888Z,2.00
2018-12-20T19:17:41.666Z,2.10
2018-12-20T19:22:56.485Z,2.30
2018-12-20T19:28:08.646Z,2.33
2018-12-20T19:33:21.613Z,2.20
2018-12-20T19:38:32.889Z,2.40
2018-12-20T19:48:56.648Z,3.20
2018-12-20T19:59:28.787Z,2.95
2018-12-20T20:10:15.812Z,3.12
2018-12-20T20:15:26.801Z,2.98
2018-12-20T20:20:46.778Z,3.25
2018-12-20T20:25:59.330Z,3.10
2018-12-20T20:36:22.761Z,3.55
2018-12-20T20:41:35.887Z,2.90
2018-12-20T20:46:47.733Z,3.22
2018-12-20T20:58:01.751Z,3.00
2018-12-20T21:03:17.526Z,3.05
2018-12-20T21:08:28.726Z,3.58
2018-12-20T21:13:43.597Z,2.95
2018-12-20T21:18:55.593Z,2.90
2018-12-20T21:24:06.906Z,3.25
2018-12-20T21:29:18.624Z,2.95
2018-12-20T21:34:43.843Z,2.60
2018-12-20T21:39:58.689Z,3.20
2018-12-20T21:45:11.324Z,3.22
2018-12-20T21:50:26.721Z,2.50
2018-12-20T21:55:38.434Z,2.60
2018-12-20T22:00:52.814Z,2.85
2018-12-20T22:06:03.612Z,2.83
2018-12-20T22:11:20.811Z,2.70
2018-12-20T22:16:31.980Z,2.67
2018-12-20T22:21:43.909Z,2.80
2018-12-20T22:26:54.803Z,2.60
2018-12-20T22:37:58.804Z,2.40
2018-12-20T22:43:15.648Z,2.90
2018-12-20T22:48:27.786Z,2.50
2018-12-20T22:53:39.018Z,2.80
2018-12-20T22:58:50.583Z,2.80
2018-12-20T23:04:01.695Z,2.72
2018-12-20T23:09:12.722Z,2.75
2018-12-20T23:14:23.880Z,2.40
2018-12-20T23:19:34.885Z,2.67
2018-12-20T23:25:11.574Z,2.30
2018-12-20T23:30:22.882Z,2.67
2018-12-20T23:35:33.900Z,2.72
2018-12-20T23:41:05.585Z,2.30
2018-12-20T23:46:16.669Z,2.33
2018-12-20T23:51:31.772Z,2.60
2018-12-20T23:56:43.232Z,2.58
